METAR
METAR MDST 230500Z 06004KT 9999 FEW018 SCT300 23/22 Q1016=
METAR MDPC 230500Z 07012KT 9999 FEW018 26/22 Q1015 NOSIG=
METAR MDSD 230500Z 02004KT 9999 FEW016CB SCT018 25/23 Q1015 CB/NW=